sensor_id;sensor_type;location;lat;lon;timestamp;P1;durP1;ratioP1;P2;durP2;ratioP2
30462;SDS011;17256;43.618;25.336;2023-05-29T00:09:08;12.47;;;11.13;;
30462;SDS011;17256;43.618;25.336;2023-05-29T00:12:34;12.70;;;10.63;;
30462;SDS011;17256;43.618;25.336;2023-05-29T00:15:52;12.43;;;10.90;;
30462;SDS011;17256;43.618;25.336;2023-05-29T00:25:58;14.47;;;10.83;;
30462;SDS011;17256;43.618;25.336;2023-05-29T00:29:13;11.50;;;10.20;;
30462;SDS011;17256;43.618;25.336;2023-05-29T00:36:27;11.27;;;10.17;;
30462;SDS011;17256;43.618;25.336;2023-05-29T00:43:26;13.17;;;11.10;;
30462;SDS011;17256;43.618;25.336;2023-05-29T00:47:09;14.87;;;13.47;;
30462;SDS011;17256;43.618;25.336;2023-05-29T01:11:13;19.37;;;17.37;;
30462;SDS011;17256;43.618;25.336;2023-05-29T04:36:12;19.10;;;12.80;;
30462;SDS011;17256;43.618;25.336;2023-05-29T04:38:46;14.00;;;12.60;;
30462;SDS011;17256;43.618;25.336;2023-05-29T04:41:48;15.83;;;13.70;;
30462;SDS011;17256;43.618;25.336;2023-05-29T04:48:22;15.53;;;13.33;;
30462;SDS011;17256;43.618;25.336;2023-05-29T04:51:43;15.47;;;11.67;;
30462;SDS011;17256;43.618;25.336;2023-05-29T04:54:15;12.63;;;11.30;;
30462;SDS011;17256;43.618;25.336;2023-05-29T04:57:25;13.93;;;12.33;;
30462;SDS011;17256;43.618;25.336;2023-05-29T05:00:28;15.70;;;12.07;;
30462;SDS011;17256;43.618;25.336;2023-05-29T05:03:08;12.97;;;11.63;;
30462;SDS011;17256;43.618;25.336;2023-05-29T05:06:18;13.57;;;12.13;;
30462;SDS011;17256;43.618;25.336;2023-05-29T05:09:39;15.37;;;13.17;;
30462;SDS011;17256;43.618;25.336;2023-05-29T05:12:39;20.10;;;18.20;;
30462;SDS011;17256;43.618;25.336;2023-05-29T05:15:14;18.33;;;16.03;;
30462;SDS011;17256;43.618;25.336;2023-05-29T05:18:12;16.90;;;15.30;;
30462;SDS011;17256;43.618;25.336;2023-05-29T05:21:17;19.30;;;17.37;;
30462;SDS011;17256;43.618;25.336;2023-05-29T05:23:55;18.47;;;16.77;;
30462;SDS011;17256;43.618;25.336;2023-05-29T05:29:29;14.00;;;12.03;;
30462;SDS011;17256;43.618;25.336;2023-05-29T05:32:57;14.10;;;12.27;;
30462;SDS011;17256;43.618;25.336;2023-05-29T05:36:15;13.23;;;10.97;;
30462;SDS011;17256;43.618;25.336;2023-05-29T05:40:18;11.77;;;10.67;;
30462;SDS011;17256;43.618;25.336;2023-05-29T05:44:07;13.17;;;10.33;;
30462;SDS011;17256;43.618;25.336;2023-05-29T05:47:42;12.00;;;10.03;;
30462;SDS011;17256;43.618;25.336;2023-05-29T05:51:28;12.77;;;9.87;;
30462;SDS011;17256;43.618;25.336;2023-05-29T05:57:31;14.37;;;10.73;;
30462;SDS011;17256;43.618;25.336;2023-05-29T06:00:35;13.47;;;11.10;;
30462;SDS011;17256;43.618;25.336;2023-05-29T06:06:16;22.47;;;12.83;;
30462;SDS011;17256;43.618;25.336;2023-05-29T06:15:24;14.23;;;10.67;;
30462;SDS011;17256;43.618;25.336;2023-05-29T06:18:41;11.93;;;9.73;;
30462;SDS011;17256;43.618;25.336;2023-05-29T06:21:56;15.43;;;8.73;;
30462;SDS011;17256;43.618;25.336;2023-05-29T06:24:56;13.23;;;8.17;;
30462;SDS011;17256;43.618;25.336;2023-05-29T06:30:31;11.93;;;7.50;;
30462;SDS011;17256;43.618;25.336;2023-05-29T06:33:15;8.50;;;7.60;;
30462;SDS011;17256;43.618;25.336;2023-05-29T06:36:12;8.73;;;7.80;;
30462;SDS011;17256;43.618;25.336;2023-05-29T06:42:31;8.17;;;7.10;;
30462;SDS011;17256;43.618;25.336;2023-05-29T06:45:16;8.10;;;6.93;;
30462;SDS011;17256;43.618;25.336;2023-05-29T06:50:33;8.33;;;6.83;;
30462;SDS011;17256;43.618;25.336;2023-05-29T06:53:25;8.83;;;7.17;;
30462;SDS011;17256;43.618;25.336;2023-05-29T06:55:55;9.57;;;6.27;;
30462;SDS011;17256;43.618;25.336;2023-05-29T06:58:22;7.67;;;6.97;;
30462;SDS011;17256;43.618;25.336;2023-05-29T07:00:52;9.27;;;7.00;;
30462;SDS011;17256;43.618;25.336;2023-05-29T07:03:26;9.63;;;7.77;;
30462;SDS011;17256;43.618;25.336;2023-05-29T07:05:59;11.10;;;6.87;;
30462;SDS011;17256;43.618;25.336;2023-05-29T07:08:43;7.43;;;6.83;;
30462;SDS011;17256;43.618;25.336;2023-05-29T07:11:17;9.20;;;7.10;;
30462;SDS011;17256;43.618;25.336;2023-05-29T07:13:43;8.53;;;7.13;;
30462;SDS011;17256;43.618;25.336;2023-05-29T07:19:15;8.40;;;7.43;;
30462;SDS011;17256;43.618;25.336;2023-05-29T07:22:10;10.07;;;8.23;;
30462;SDS011;17256;43.618;25.336;2023-05-29T07:24:38;7.80;;;7.03;;
30462;SDS011;17256;43.618;25.336;2023-05-29T07:30:07;10.30;;;7.63;;
30462;SDS011;17256;43.618;25.336;2023-05-29T07:32:36;9.00;;;8.20;;
30462;SDS011;17256;43.618;25.336;2023-05-29T07:36:00;11.33;;;7.23;;
30462;SDS011;17256;43.618;25.336;2023-05-29T07:39:23;8.57;;;7.87;;
30462;SDS011;17256;43.618;25.336;2023-05-29T07:46:08;9.20;;;8.30;;
30462;SDS011;17256;43.618;25.336;2023-05-29T07:48:48;9.43;;;8.13;;
30462;SDS011;17256;43.618;25.336;2023-05-29T07:51:18;8.50;;;7.63;;
30462;SDS011;17256;43.618;25.336;2023-05-29T07:54:01;9.00;;;7.87;;
30462;SDS011;17256;43.618;25.336;2023-05-29T07:57:39;8.20;;;7.43;;
30462;SDS011;17256;43.618;25.336;2023-05-29T08:00:08;8.43;;;7.63;;
30462;SDS011;17256;43.618;25.336;2023-05-29T08:02:51;7.80;;;7.03;;
30462;SDS011;17256;43.618;25.336;2023-05-29T08:06:56;7.67;;;7.07;;
30462;SDS011;17256;43.618;25.336;2023-05-29T08:10:07;8.77;;;6.33;;
30462;SDS011;17256;43.618;25.336;2023-05-29T08:12:35;8.30;;;7.50;;
30462;SDS011;17256;43.618;25.336;2023-05-29T08:16:03;8.20;;;7.50;;
30462;SDS011;17256;43.618;25.336;2023-05-29T08:22:40;7.93;;;7.13;;
30462;SDS011;17256;43.618;25.336;2023-05-29T08:26:24;11.37;;;7.97;;
30462;SDS011;17256;43.618;25.336;2023-05-29T08:29:02;8.00;;;7.20;;
30462;SDS011;17256;43.618;25.336;2023-05-29T08:32:07;8.70;;;7.80;;
30462;SDS011;17256;43.618;25.336;2023-05-29T08:35:00;9.57;;;7.27;;
30462;SDS011;17256;43.618;25.336;2023-05-29T08:37:41;13.20;;;8.20;;
30462;SDS011;17256;43.618;25.336;2023-05-29T08:40:16;8.43;;;7.63;;
30462;SDS011;17256;43.618;25.336;2023-05-29T08:47:02;8.77;;;7.87;;
30462;SDS011;17256;43.618;25.336;2023-05-29T08:50:27;8.50;;;7.03;;
30462;SDS011;17256;43.618;25.336;2023-05-29T08:52:54;7.97;;;7.27;;
30462;SDS011;17256;43.618;25.336;2023-05-29T08:55:35;7.70;;;7.03;;
30462;SDS011;17256;43.618;25.336;2023-05-29T08:58:04;7.90;;;7.13;;
30462;SDS011;17256;43.618;25.336;2023-05-29T09:00:38;7.37;;;6.60;;
30462;SDS011;17256;43.618;25.336;2023-05-29T09:03:07;7.70;;;6.60;;
30462;SDS011;17256;43.618;25.336;2023-05-29T09:06:09;7.47;;;6.20;;
30462;SDS011;17256;43.618;25.336;2023-05-29T09:08:47;7.03;;;6.33;;
30462;SDS011;17256;43.618;25.336;2023-05-29T09:11:18;6.47;;;5.87;;
30462;SDS011;17256;43.618;25.336;2023-05-29T09:13:43;6.63;;;5.90;;
30462;SDS011;17256;43.618;25.336;2023-05-29T09:16:15;6.37;;;5.87;;
30462;SDS011;17256;43.618;25.336;2023-05-29T09:18:43;6.17;;;5.53;;
30462;SDS011;17256;43.618;25.336;2023-05-29T09:21:26;6.30;;;5.70;;
30462;SDS011;17256;43.618;25.336;2023-05-29T09:24:13;6.67;;;5.50;;
30462;SDS011;17256;43.618;25.336;2023-05-29T09:26:52;8.47;;;6.07;;
30462;SDS011;17256;43.618;25.336;2023-05-29T09:29:48;5.60;;;5.10;;
30462;SDS011;17256;43.618;25.336;2023-05-29T09:32:15;6.27;;;5.77;;
30462;SDS011;17256;43.618;25.336;2023-05-29T09:34:42;7.37;;;6.43;;
30462;SDS011;17256;43.618;25.336;2023-05-29T09:37:16;7.20;;;5.67;;
30462;SDS011;17256;43.618;25.336;2023-05-29T09:40:05;6.77;;;6.17;;
30462;SDS011;17256;43.618;25.336;2023-05-29T09:43:12;5.63;;;5.17;;
30462;SDS011;17256;43.618;25.336;2023-05-29T09:45:46;10.07;;;6.00;;
30462;SDS011;17256;43.618;25.336;2023-05-29T09:48:18;10.57;;;6.50;;
30462;SDS011;17256;43.618;25.336;2023-05-29T09:51:39;7.03;;;5.73;;
30462;SDS011;17256;43.618;25.336;2023-05-29T09:54:16;6.63;;;6.07;;
30462;SDS011;17256;43.618;25.336;2023-05-29T09:56:58;6.03;;;5.53;;
30462;SDS011;17256;43.618;25.336;2023-05-29T10:01:04;6.97;;;5.73;;
30462;SDS011;17256;43.618;25.336;2023-05-29T10:03:30;15.90;;;6.07;;
30462;SDS011;17256;43.618;25.336;2023-05-29T10:06:02;5.90;;;5.30;;
30462;SDS011;17256;43.618;25.336;2023-05-29T10:08:38;9.93;;;5.27;;
30462;SDS011;17256;43.618;25.336;2023-05-29T10:14:21;6.57;;;5.97;;
30462;SDS011;17256;43.618;25.336;2023-05-29T10:16:52;9.23;;;7.00;;
30462;SDS011;17256;43.618;25.336;2023-05-29T10:19:25;7.50;;;5.93;;
30462;SDS011;17256;43.618;25.336;2023-05-29T10:21:55;7.13;;;6.43;;
30462;SDS011;17256;43.618;25.336;2023-05-29T10:24:33;8.33;;;5.67;;
30462;SDS011;17256;43.618;25.336;2023-05-29T10:27:06;5.90;;;5.40;;
30462;SDS011;17256;43.618;25.336;2023-05-29T10:29:36;9.97;;;5.93;;
30462;SDS011;17256;43.618;25.336;2023-05-29T10:35:01;5.97;;;5.07;;
30462;SDS011;17256;43.618;25.336;2023-05-29T10:37:43;5.80;;;5.27;;
30462;SDS011;17256;43.618;25.336;2023-05-29T10:40:15;5.77;;;5.20;;
30462;SDS011;17256;43.618;25.336;2023-05-29T10:42:42;5.47;;;5.07;;
30462;SDS011;17256;43.618;25.336;2023-05-29T10:55:05;9.13;;;5.47;;
30462;SDS011;17256;43.618;25.336;2023-05-29T10:57:35;5.73;;;5.17;;
30462;SDS011;17256;43.618;25.336;2023-05-29T11:00:03;4.93;;;4.53;;
30462;SDS011;17256;43.618;25.336;2023-05-29T11:03:03;7.60;;;5.93;;
30462;SDS011;17256;43.618;25.336;2023-05-29T11:06:23;7.27;;;5.33;;
30462;SDS011;17256;43.618;25.336;2023-05-29T11:08:53;6.30;;;5.70;;
30462;SDS011;17256;43.618;25.336;2023-05-29T11:13:56;7.40;;;6.03;;
30462;SDS011;17256;43.618;25.336;2023-05-29T11:19:37;7.83;;;6.00;;
30462;SDS011;17256;43.618;25.336;2023-05-29T11:25:14;7.53;;;5.07;;
30462;SDS011;17256;43.618;25.336;2023-05-29T11:27:40;6.20;;;5.70;;
30462;SDS011;17256;43.618;25.336;2023-05-29T11:30:11;6.17;;;5.57;;
30462;SDS011;17256;43.618;25.336;2023-05-29T11:33:27;5.80;;;5.23;;
30462;SDS011;17256;43.618;25.336;2023-05-29T11:49:50;6.20;;;5.70;;
30462;SDS011;17256;43.618;25.336;2023-05-29T11:53:07;6.20;;;5.60;;
30462;SDS011;17256;43.618;25.336;2023-05-29T11:57:06;5.73;;;5.20;;
30462;SDS011;17256;43.618;25.336;2023-05-29T12:03:01;8.70;;;5.80;;
30462;SDS011;17256;43.618;25.336;2023-05-29T12:05:45;15.30;;;8.03;;
30462;SDS011;17256;43.618;25.336;2023-05-29T12:08:15;11.30;;;6.73;;
30462;SDS011;17256;43.618;25.336;2023-05-29T12:10:49;11.47;;;8.13;;
30462;SDS011;17256;43.618;25.336;2023-05-29T12:13:39;9.57;;;8.67;;
30462;SDS011;17256;43.618;25.336;2023-05-29T12:16:57;11.40;;;7.87;;
30462;SDS011;17256;43.618;25.336;2023-05-29T12:21:05;8.83;;;7.17;;
30462;SDS011;17256;43.618;25.336;2023-05-29T12:23:55;9.53;;;7.50;;
30462;SDS011;17256;43.618;25.336;2023-05-29T12:27:26;12.90;;;7.77;;
30462;SDS011;17256;43.618;25.336;2023-05-29T12:30:02;10.03;;;8.83;;
30462;SDS011;17256;43.618;25.336;2023-05-29T12:33:16;12.20;;;7.47;;
30462;SDS011;17256;43.618;25.336;2023-05-29T12:36:06;10.00;;;7.47;;
30462;SDS011;17256;43.618;25.336;2023-05-29T12:38:50;9.63;;;7.27;;
30462;SDS011;17256;43.618;25.336;2023-05-29T12:43:53;7.27;;;6.67;;
30462;SDS011;17256;43.618;25.336;2023-05-29T12:49:15;11.27;;;7.33;;
30462;SDS011;17256;43.618;25.336;2023-05-29T12:51:42;15.80;;;8.83;;
30462;SDS011;17256;43.618;25.336;2023-05-29T12:54:16;8.83;;;7.30;;
30462;SDS011;17256;43.618;25.336;2023-05-29T12:56:43;9.87;;;8.30;;
30462;SDS011;17256;43.618;25.336;2023-05-29T12:59:12;9.00;;;8.10;;
30462;SDS011;17256;43.618;25.336;2023-05-29T13:01:41;10.47;;;9.47;;
30462;SDS011;17256;43.618;25.336;2023-05-29T13:04:10;10.43;;;9.27;;
30462;SDS011;17256;43.618;25.336;2023-05-29T13:06:49;12.20;;;10.50;;
30462;SDS011;17256;43.618;25.336;2023-05-29T13:09:18;10.53;;;9.53;;
30462;SDS011;17256;43.618;25.336;2023-05-29T13:11:46;10.27;;;9.37;;
30462;SDS011;17256;43.618;25.336;2023-05-29T13:14:14;11.10;;;10.00;;
30462;SDS011;17256;43.618;25.336;2023-05-29T13:16:40;11.73;;;10.60;;
30462;SDS011;17256;43.618;25.336;2023-05-29T13:19:06;11.43;;;10.43;;
30462;SDS011;17256;43.618;25.336;2023-05-29T13:21:32;11.77;;;10.67;;
30462;SDS011;17256;43.618;25.336;2023-05-29T13:23:58;13.43;;;12.33;;
30462;SDS011;17256;43.618;25.336;2023-05-29T13:26:23;13.07;;;11.97;;
30462;SDS011;17256;43.618;25.336;2023-05-29T13:28:50;11.87;;;10.60;;
30462;SDS011;17256;43.618;25.336;2023-05-29T13:31:16;13.43;;;12.07;;
30462;SDS011;17256;43.618;25.336;2023-05-29T13:33:43;12.13;;;11.03;;
30462;SDS011;17256;43.618;25.336;2023-05-29T13:36:08;12.83;;;11.67;;
30462;SDS011;17256;43.618;25.336;2023-05-29T13:38:34;13.37;;;12.07;;
30462;SDS011;17256;43.618;25.336;2023-05-29T13:41:00;12.07;;;10.97;;
30462;SDS011;17256;43.618;25.336;2023-05-29T13:43:26;11.13;;;10.17;;
30462;SDS011;17256;43.618;25.336;2023-05-29T13:45:51;10.43;;;9.40;;
30462;SDS011;17256;43.618;25.336;2023-05-29T13:48:17;10.70;;;9.80;;
30462;SDS011;17256;43.618;25.336;2023-05-29T13:50:43;11.37;;;10.40;;
30462;SDS011;17256;43.618;25.336;2023-05-29T13:53:09;11.70;;;10.63;;
30462;SDS011;17256;43.618;25.336;2023-05-29T13:55:35;12.27;;;11.17;;
30462;SDS011;17256;43.618;25.336;2023-05-29T13:58:05;11.47;;;10.47;;
30462;SDS011;17256;43.618;25.336;2023-05-29T14:00:31;12.53;;;11.33;;
30462;SDS011;17256;43.618;25.336;2023-05-29T14:02:57;13.67;;;12.23;;
30462;SDS011;17256;43.618;25.336;2023-05-29T14:05:22;13.20;;;12.00;;
30462;SDS011;17256;43.618;25.336;2023-05-29T14:07:48;13.90;;;12.73;;
30462;SDS011;17256;43.618;25.336;2023-05-29T14:10:16;13.97;;;12.57;;
30462;SDS011;17256;43.618;25.336;2023-05-29T14:12:42;12.93;;;11.63;;
30462;SDS011;17256;43.618;25.336;2023-05-29T14:15:08;14.60;;;13.30;;
30462;SDS011;17256;43.618;25.336;2023-05-29T14:17:36;14.47;;;13.13;;
30462;SDS011;17256;43.618;25.336;2023-05-29T14:20:02;16.13;;;14.60;;
30462;SDS011;17256;43.618;25.336;2023-05-29T14:22:33;15.03;;;13.63;;
30462;SDS011;17256;43.618;25.336;2023-05-29T14:25:05;15.60;;;14.17;;
30462;SDS011;17256;43.618;25.336;2023-05-29T14:27:31;14.57;;;13.07;;
30462;SDS011;17256;43.618;25.336;2023-05-29T14:29:59;15.17;;;13.87;;
30462;SDS011;17256;43.618;25.336;2023-05-29T14:32:26;15.30;;;13.90;;
30462;SDS011;17256;43.618;25.336;2023-05-29T14:34:57;16.10;;;14.50;;
30462;SDS011;17256;43.618;25.336;2023-05-29T14:37:25;15.60;;;14.10;;
30462;SDS011;17256;43.618;25.336;2023-05-29T14:39:52;14.40;;;13.20;;
30462;SDS011;17256;43.618;25.336;2023-05-29T14:42:30;16.53;;;13.67;;
30462;SDS011;17256;43.618;25.336;2023-05-29T14:44:58;14.93;;;13.63;;
30462;SDS011;17256;43.618;25.336;2023-05-29T14:47:25;16.30;;;14.80;;
30462;SDS011;17256;43.618;25.336;2023-05-29T14:49:52;14.80;;;13.47;;
30462;SDS011;17256;43.618;25.336;2023-05-29T14:52:18;13.97;;;12.67;;
30462;SDS011;17256;43.618;25.336;2023-05-29T14:54:45;13.87;;;12.73;;
30462;SDS011;17256;43.618;25.336;2023-05-29T14:57:16;17.10;;;15.37;;
30462;SDS011;17256;43.618;25.336;2023-05-29T14:59:43;13.87;;;12.67;;
30462;SDS011;17256;43.618;25.336;2023-05-29T15:02:09;13.73;;;12.40;;
30462;SDS011;17256;43.618;25.336;2023-05-29T15:04:36;13.17;;;11.97;;
30462;SDS011;17256;43.618;25.336;2023-05-29T15:07:04;13.77;;;12.37;;
30462;SDS011;17256;43.618;25.336;2023-05-29T15:09:30;14.20;;;12.90;;
30462;SDS011;17256;43.618;25.336;2023-05-29T15:11:56;14.83;;;13.43;;
30462;SDS011;17256;43.618;25.336;2023-05-29T15:14:23;13.77;;;12.47;;
30462;SDS011;17256;43.618;25.336;2023-05-29T15:16:49;14.47;;;13.13;;
30462;SDS011;17256;43.618;25.336;2023-05-29T15:19:16;14.20;;;12.73;;
30462;SDS011;17256;43.618;25.336;2023-05-29T15:21:43;16.87;;;15.30;;
30462;SDS011;17256;43.618;25.336;2023-05-29T15:24:09;16.87;;;15.13;;
30462;SDS011;17256;43.618;25.336;2023-05-29T15:26:35;18.57;;;16.57;;
30462;SDS011;17256;43.618;25.336;2023-05-29T15:29:02;17.97;;;16.10;;
30462;SDS011;17256;43.618;25.336;2023-05-29T15:31:28;13.77;;;12.00;;
30462;SDS011;17256;43.618;25.336;2023-05-29T15:33:54;7.73;;;4.90;;
30462;SDS011;17256;43.618;25.336;2023-05-29T15:36:19;4.37;;;4.07;;
30462;SDS011;17256;43.618;25.336;2023-05-29T15:38:46;5.10;;;4.43;;
30462;SDS011;17256;43.618;25.336;2023-05-29T15:41:12;6.17;;;4.83;;
30462;SDS011;17256;43.618;25.336;2023-05-29T15:43:38;5.70;;;5.20;;
30462;SDS011;17256;43.618;25.336;2023-05-29T15:46:05;7.57;;;6.97;;
30462;SDS011;17256;43.618;25.336;2023-05-29T15:48:31;9.37;;;6.27;;
30462;SDS011;17256;43.618;25.336;2023-05-29T15:50:57;22.77;;;8.93;;
30462;SDS011;17256;43.618;25.336;2023-05-29T15:53:23;9.40;;;8.50;;
30462;SDS011;17256;43.618;25.336;2023-05-29T15:55:48;10.83;;;8.60;;
30462;SDS011;17256;43.618;25.336;2023-05-29T15:58:14;9.23;;;8.37;;
30462;SDS011;17256;43.618;25.336;2023-05-29T16:00:40;12.70;;;8.80;;
30462;SDS011;17256;43.618;25.336;2023-05-29T16:03:06;8.90;;;8.10;;
30462;SDS011;17256;43.618;25.336;2023-05-29T16:05:32;9.43;;;8.53;;
30462;SDS011;17256;43.618;25.336;2023-05-29T16:08:00;10.37;;;8.97;;
30462;SDS011;17256;43.618;25.336;2023-05-29T16:10:26;9.83;;;8.83;;
30462;SDS011;17256;43.618;25.336;2023-05-29T16:12:53;8.20;;;7.50;;
30462;SDS011;17256;43.618;25.336;2023-05-29T16:15:19;9.20;;;8.37;;
30462;SDS011;17256;43.618;25.336;2023-05-29T16:17:46;9.20;;;8.27;;
30462;SDS011;17256;43.618;25.336;2023-05-29T16:20:12;8.43;;;7.67;;
30462;SDS011;17256;43.618;25.336;2023-05-29T16:22:39;8.23;;;7.43;;
30462;SDS011;17256;43.618;25.336;2023-05-29T16:25:06;10.37;;;8.57;;
30462;SDS011;17256;43.618;25.336;2023-05-29T16:27:33;9.33;;;8.40;;
30462;SDS011;17256;43.618;25.336;2023-05-29T16:29:59;12.60;;;8.80;;
30462;SDS011;17256;43.618;25.336;2023-05-29T16:32:26;10.50;;;9.40;;
30462;SDS011;17256;43.618;25.336;2023-05-29T16:34:53;12.63;;;9.80;;
30462;SDS011;17256;43.618;25.336;2023-05-29T16:37:23;12.07;;;10.97;;
30462;SDS011;17256;43.618;25.336;2023-05-29T16:39:50;10.10;;;9.20;;
30462;SDS011;17256;43.618;25.336;2023-05-29T16:42:16;12.30;;;10.40;;
30462;SDS011;17256;43.618;25.336;2023-05-29T16:44:44;17.10;;;15.37;;
30462;SDS011;17256;43.618;25.336;2023-05-29T16:47:11;12.27;;;9.77;;
30462;SDS011;17256;43.618;25.336;2023-05-29T16:49:38;10.63;;;9.63;;
30462;SDS011;17256;43.618;25.336;2023-05-29T16:52:06;11.13;;;10.00;;
30462;SDS011;17256;43.618;25.336;2023-05-29T16:54:32;12.20;;;10.13;;
30462;SDS011;17256;43.618;25.336;2023-05-29T16:57:00;11.57;;;9.30;;
30462;SDS011;17256;43.618;25.336;2023-05-29T16:59:28;11.40;;;10.30;;
30462;SDS011;17256;43.618;25.336;2023-05-29T17:01:54;11.30;;;10.20;;
30462;SDS011;17256;43.618;25.336;2023-05-29T17:04:21;10.43;;;9.57;;
30462;SDS011;17256;43.618;25.336;2023-05-29T17:06:48;11.57;;;9.80;;
30462;SDS011;17256;43.618;25.336;2023-05-29T17:09:14;11.63;;;10.53;;
30462;SDS011;17256;43.618;25.336;2023-05-29T17:11:40;11.47;;;10.40;;
30462;SDS011;17256;43.618;25.336;2023-05-29T17:14:06;13.03;;;10.70;;
30462;SDS011;17256;43.618;25.336;2023-05-29T17:16:34;15.20;;;11.80;;
30462;SDS011;17256;43.618;25.336;2023-05-29T17:19:01;19.77;;;17.83;;
30462;SDS011;17256;43.618;25.336;2023-05-29T17:21:27;12.20;;;11.07;;
30462;SDS011;17256;43.618;25.336;2023-05-29T17:23:53;11.53;;;10.47;;
30462;SDS011;17256;43.618;25.336;2023-05-29T17:26:21;12.27;;;11.00;;
30462;SDS011;17256;43.618;25.336;2023-05-29T17:28:48;11.90;;;10.70;;
30462;SDS011;17256;43.618;25.336;2023-05-29T17:31:16;21.17;;;19.17;;
30462;SDS011;17256;43.618;25.336;2023-05-29T17:33:42;12.97;;;11.77;;
30462;SDS011;17256;43.618;25.336;2023-05-29T17:36:08;20.60;;;18.40;;
30462;SDS011;17256;43.618;25.336;2023-05-29T17:38:34;14.53;;;12.00;;
30462;SDS011;17256;43.618;25.336;2023-05-29T17:41:00;12.47;;;11.27;;
30462;SDS011;17256;43.618;25.336;2023-05-29T17:43:28;12.47;;;11.10;;
30462;SDS011;17256;43.618;25.336;2023-05-29T17:45:57;11.67;;;10.57;;
30462;SDS011;17256;43.618;25.336;2023-05-29T17:48:24;11.27;;;10.30;;
30462;SDS011;17256;43.618;25.336;2023-05-29T17:50:50;12.17;;;10.97;;
30462;SDS011;17256;43.618;25.336;2023-05-29T17:53:16;11.17;;;10.07;;
30462;SDS011;17256;43.618;25.336;2023-05-29T17:55:44;12.13;;;10.93;;
30462;SDS011;17256;43.618;25.336;2023-05-29T17:58:09;13.23;;;10.30;;
30462;SDS011;17256;43.618;25.336;2023-05-29T18:00:35;11.33;;;10.37;;
30462;SDS011;17256;43.618;25.336;2023-05-29T18:03:03;11.93;;;10.73;;
30462;SDS011;17256;43.618;25.336;2023-05-29T18:05:34;10.63;;;9.83;;
30462;SDS011;17256;43.618;25.336;2023-05-29T18:08:02;11.07;;;10.00;;
30462;SDS011;17256;43.618;25.336;2023-05-29T18:10:28;12.47;;;10.43;;
30462;SDS011;17256;43.618;25.336;2023-05-29T18:12:56;11.40;;;10.40;;
30462;SDS011;17256;43.618;25.336;2023-05-29T18:15:23;11.43;;;10.43;;
30462;SDS011;17256;43.618;25.336;2023-05-29T18:17:49;11.73;;;10.63;;
30462;SDS011;17256;43.618;25.336;2023-05-29T18:20:16;10.67;;;9.77;;
30462;SDS011;17256;43.618;25.336;2023-05-29T18:22:45;11.70;;;10.60;;
30462;SDS011;17256;43.618;25.336;2023-05-29T18:25:10;11.07;;;9.97;;
30462;SDS011;17256;43.618;25.336;2023-05-29T18:27:36;12.67;;;11.37;;
30462;SDS011;17256;43.618;25.336;2023-05-29T18:30:03;11.67;;;10.47;;
30462;SDS011;17256;43.618;25.336;2023-05-29T18:32:33;12.40;;;11.00;;
30462;SDS011;17256;43.618;25.336;2023-05-29T18:35:03;14.50;;;11.00;;
30462;SDS011;17256;43.618;25.336;2023-05-29T18:37:29;11.73;;;10.63;;
30462;SDS011;17256;43.618;25.336;2023-05-29T18:39:55;13.10;;;11.80;;
30462;SDS011;17256;43.618;25.336;2023-05-29T18:42:22;11.67;;;10.50;;
30462;SDS011;17256;43.618;25.336;2023-05-29T18:44:47;12.87;;;11.77;;
30462;SDS011;17256;43.618;25.336;2023-05-29T18:47:13;14.93;;;12.23;;
30462;SDS011;17256;43.618;25.336;2023-05-29T18:49:41;12.20;;;11.10;;
30462;SDS011;17256;43.618;25.336;2023-05-29T18:52:10;15.30;;;11.23;;
30462;SDS011;17256;43.618;25.336;2023-05-29T18:54:35;11.90;;;10.93;;
30462;SDS011;17256;43.618;25.336;2023-05-29T18:57:02;11.70;;;10.60;;
30462;SDS011;17256;43.618;25.336;2023-05-29T18:59:32;13.30;;;11.93;;
30462;SDS011;17256;43.618;25.336;2023-05-29T19:01:59;11.73;;;10.83;;
30462;SDS011;17256;43.618;25.336;2023-05-29T19:04:26;12.83;;;11.53;;
30462;SDS011;17256;43.618;25.336;2023-05-29T19:06:52;13.03;;;11.83;;
30462;SDS011;17256;43.618;25.336;2023-05-29T19:09:19;12.17;;;11.03;;
30462;SDS011;17256;43.618;25.336;2023-05-29T19:14:26;12.07;;;10.80;;
30462;SDS011;17256;43.618;25.336;2023-05-29T19:16:53;13.83;;;11.37;;
30462;SDS011;17256;43.618;25.336;2023-05-29T19:19:19;14.03;;;11.37;;
30462;SDS011;17256;43.618;25.336;2023-05-29T19:21:46;12.47;;;11.17;;
30462;SDS011;17256;43.618;25.336;2023-05-29T19:24:12;13.70;;;12.40;;
30462;SDS011;17256;43.618;25.336;2023-05-29T19:26:42;15.67;;;12.10;;
30462;SDS011;17256;43.618;25.336;2023-05-29T19:29:11;12.83;;;11.50;;
30462;SDS011;17256;43.618;25.336;2023-05-29T19:31:46;13.23;;;11.93;;
30462;SDS011;17256;43.618;25.336;2023-05-29T19:34:50;12.73;;;11.63;;
30462;SDS011;17256;43.618;25.336;2023-05-29T19:37:41;12.43;;;11.43;;
30462;SDS011;17256;43.618;25.336;2023-05-29T19:40:22;15.33;;;11.77;;
30462;SDS011;17256;43.618;25.336;2023-05-29T19:43:21;13.17;;;11.80;;
30462;SDS011;17256;43.618;25.336;2023-05-29T19:46:06;12.73;;;11.63;;
30462;SDS011;17256;43.618;25.336;2023-05-29T19:48:33;13.30;;;12.00;;
30462;SDS011;17256;43.618;25.336;2023-05-29T19:51:05;13.23;;;12.07;;
30462;SDS011;17256;43.618;25.336;2023-05-29T19:53:32;12.33;;;11.27;;
30462;SDS011;17256;43.618;25.336;2023-05-29T19:56:00;13.07;;;11.77;;
30462;SDS011;17256;43.618;25.336;2023-05-29T19:58:26;12.53;;;11.43;;
30462;SDS011;17256;43.618;25.336;2023-05-29T20:00:52;13.80;;;12.20;;
30462;SDS011;17256;43.618;25.336;2023-05-29T20:03:21;12.40;;;11.17;;
30462;SDS011;17256;43.618;25.336;2023-05-29T20:05:54;13.60;;;12.23;;
30462;SDS011;17256;43.618;25.336;2023-05-29T20:08:21;12.57;;;11.33;;
30462;SDS011;17256;43.618;25.336;2023-05-29T20:13:31;13.97;;;12.63;;
30462;SDS011;17256;43.618;25.336;2023-05-29T20:25:11;15.87;;;12.80;;
30462;SDS011;17256;43.618;25.336;2023-05-29T20:32:58;12.43;;;11.20;;
30462;SDS011;17256;43.618;25.336;2023-05-29T20:35:43;12.67;;;11.47;;
30462;SDS011;17256;43.618;25.336;2023-05-29T20:38:14;14.60;;;12.30;;
30462;SDS011;17256;43.618;25.336;2023-05-29T20:40:48;14.07;;;12.67;;
30462;SDS011;17256;43.618;25.336;2023-05-29T20:44:05;13.60;;;12.20;;
30462;SDS011;17256;43.618;25.336;2023-05-29T20:46:37;14.93;;;13.37;;
30462;SDS011;17256;43.618;25.336;2023-05-29T20:49:05;13.53;;;12.33;;
30462;SDS011;17256;43.618;25.336;2023-05-29T20:54:34;17.03;;;12.80;;
30462;SDS011;17256;43.618;25.336;2023-05-29T20:57:06;13.73;;;12.43;;
30462;SDS011;17256;43.618;25.336;2023-05-29T20:59:42;14.27;;;12.80;;
30462;SDS011;17256;43.618;25.336;2023-05-29T21:02:09;15.20;;;13.70;;
30462;SDS011;17256;43.618;25.336;2023-05-29T21:04:36;15.93;;;13.27;;
30462;SDS011;17256;43.618;25.336;2023-05-29T21:07:02;14.83;;;13.43;;
30462;SDS011;17256;43.618;25.336;2023-05-29T21:09:28;16.23;;;13.57;;
30462;SDS011;17256;43.618;25.336;2023-05-29T21:11:54;14.37;;;13.10;;
30462;SDS011;17256;43.618;25.336;2023-05-29T21:14:21;15.20;;;13.80;;
30462;SDS011;17256;43.618;25.336;2023-05-29T21:16:47;15.57;;;14.07;;
30462;SDS011;17256;43.618;25.336;2023-05-29T21:19:15;15.93;;;14.50;;
30462;SDS011;17256;43.618;25.336;2023-05-29T21:21:41;16.70;;;15.00;;
30462;SDS011;17256;43.618;25.336;2023-05-29T21:24:07;15.97;;;14.33;;